createdAt,value
2022-12-15T00:01:47.484Z,60.21
2022-12-15T00:05:07.997Z,60.37
2022-12-15T00:08:29.414Z,60.56
2022-12-15T00:11:49.308Z,60.22
2022-12-15T00:15:09.692Z,60.00
2022-12-15T00:18:30.083Z,60.41
2022-12-15T00:21:50.608Z,60.59
2022-12-15T00:25:10.595Z,60.63
2022-12-15T00:28:30.421Z,60.52
2022-12-15T00:31:50.385Z,60.32
2022-12-15T00:35:10.523Z,60.77
2022-12-15T00:38:32.427Z,60.73
2022-12-15T00:41:34.107Z,60.75
2022-12-15T00:44:37.295Z,60.57
2022-12-15T00:47:38.812Z,60.41
2022-12-15T00:50:53.990Z,60.71
2022-12-15T00:54:18.058Z,60.84
2022-12-15T00:57:38.059Z,60.81
2022-12-15T01:00:58.544Z,60.48
2022-12-15T01:04:18.614Z,60.71
2022-12-15T01:07:38.802Z,60.74
2022-12-15T01:10:58.779Z,60.60
2022-12-15T01:14:18.649Z,60.64
2022-12-15T01:17:39.428Z,60.72
2022-12-15T01:20:41.043Z,60.87
2022-12-15T01:23:42.627Z,60.86
2022-12-15T01:26:44.149Z,60.96
2022-12-15T01:29:45.743Z,60.84
2022-12-15T01:32:47.294Z,61.04
2022-12-15T01:35:59.467Z,60.38
2022-12-15T01:39:01.631Z,60.49
2022-12-15T01:42:03.232Z,60.84
2022-12-15T01:45:23.712Z,61.02
2022-12-15T01:48:28.915Z,60.66
2022-12-15T01:51:42.630Z,60.86
2022-12-15T01:54:54.012Z,60.99
2022-12-15T01:58:00.518Z,60.87
2022-12-15T02:01:03.283Z,60.72
2022-12-15T02:04:05.095Z,60.65
2022-12-15T02:07:06.688Z,60.86
2022-12-15T02:10:11.226Z,60.96
2022-12-15T02:13:24.849Z,60.82
2022-12-15T02:16:45.302Z,60.77
2022-12-15T02:20:09.686Z,60.70
2022-12-15T02:23:48.384Z,60.86
2022-12-15T02:27:15.765Z,60.80
2022-12-15T02:30:31.624Z,60.95
2022-12-15T02:33:35.743Z,60.75
2022-12-15T02:36:40.596Z,60.98
2022-12-15T02:39:42.389Z,60.95
2022-12-15T02:42:47.793Z,60.77
2022-12-15T02:46:08.927Z,61.02
2022-12-15T02:49:30.941Z,60.77
2022-12-15T02:52:56.200Z,61.01
2022-12-15T02:56:30.126Z,60.67
2022-12-15T02:59:55.593Z,61.05
2022-12-15T03:02:57.316Z,60.99
2022-12-15T03:06:02.366Z,60.92
2022-12-15T03:09:04.022Z,61.04
2022-12-15T03:12:06.109Z,60.92
2022-12-15T03:15:07.882Z,60.91
2022-12-15T03:18:09.617Z,61.00
2022-12-15T03:21:11.218Z,60.97
2022-12-15T03:24:12.855Z,61.20
2022-12-15T03:27:14.611Z,60.88
2022-12-15T03:30:16.241Z,60.87
2022-12-15T03:33:18.407Z,60.76
2022-12-15T03:36:19.898Z,61.16
2022-12-15T03:39:21.468Z,61.11
2022-12-15T03:42:41.595Z,60.94
2022-12-15T03:45:43.472Z,61.12
2022-12-15T03:48:45.062Z,60.96
2022-12-15T03:51:46.640Z,61.17
2022-12-15T03:54:48.183Z,61.07
2022-12-15T03:57:50.449Z,60.69
2022-12-15T04:00:52.019Z,61.07
2022-12-15T04:03:58.653Z,60.73
2022-12-15T04:07:02.247Z,60.80
2022-12-15T04:10:04.159Z,60.92
2022-12-15T04:13:08.391Z,61.09
2022-12-15T04:16:12.628Z,61.09
2022-12-15T04:19:35.307Z,61.21
2022-12-15T04:22:44.775Z,61.05
2022-12-15T04:26:05.341Z,60.89
2022-12-15T04:29:25.447Z,61.13
2022-12-15T04:32:45.244Z,61.05
2022-12-15T04:36:11.430Z,60.99
2022-12-15T04:39:31.505Z,61.39
2022-12-15T04:42:53.539Z,61.12
2022-12-15T04:46:13.544Z,60.94
2022-12-15T04:49:33.862Z,60.99
2022-12-15T04:52:54.043Z,61.06
2022-12-15T04:56:18.461Z,60.98
2022-12-15T04:59:39.013Z,60.73
2022-12-15T05:02:58.899Z,60.99
2022-12-15T05:06:18.762Z,61.22
2022-12-15T05:09:39.281Z,60.87
2022-12-15T05:12:59.217Z,60.83
2022-12-15T05:16:19.388Z,61.18
2022-12-15T05:19:39.624Z,60.91
2022-12-15T05:22:59.467Z,61.13
2022-12-15T05:26:19.495Z,60.82
2022-12-15T05:29:40.374Z,61.16
2022-12-15T05:32:41.883Z,60.93
2022-12-15T05:35:43.467Z,61.09
2022-12-15T05:38:48.255Z,61.53
2022-12-15T05:41:52.588Z,60.98
2022-12-15T05:44:54.634Z,61.09
2022-12-15T05:47:56.323Z,61.24
2022-12-15T05:50:57.868Z,61.44
2022-12-15T05:53:59.521Z,61.13
2022-12-15T05:57:01.070Z,60.89
2022-12-15T06:00:04.077Z,60.98
2022-12-15T06:03:05.701Z,62.47
2022-12-15T06:06:09.040Z,62.08
2022-12-15T06:09:10.782Z,61.39
2022-12-15T06:12:12.337Z,61.44
2022-12-15T06:15:14.019Z,61.46
2022-12-15T06:18:15.556Z,61.13
2022-12-15T06:21:20.083Z,60.69
2022-12-15T06:24:21.676Z,61.17
2022-12-15T06:27:23.223Z,61.04
2022-12-15T06:30:24.732Z,60.58
2022-12-15T06:33:26.386Z,61.06
2022-12-15T06:36:28.751Z,60.99
2022-12-15T06:39:30.454Z,61.04
2022-12-15T06:42:31.993Z,61.15
2022-12-15T06:45:34.386Z,60.80
2022-12-15T06:48:36.553Z,60.89
2022-12-15T06:51:38.178Z,60.86
2022-12-15T06:54:39.680Z,60.92
2022-12-15T06:57:41.263Z,61.09
2022-12-15T07:00:44.796Z,61.22
2022-12-15T07:03:46.833Z,61.32
2022-12-15T07:06:49.211Z,60.87
2022-12-15T07:09:50.774Z,60.93
2022-12-15T07:12:52.343Z,60.96
2022-12-15T07:15:53.923Z,61.05
2022-12-15T07:18:55.509Z,61.18
2022-12-15T07:21:57.779Z,60.78
2022-12-15T07:24:59.696Z,60.75
2022-12-15T07:28:01.484Z,61.26
2022-12-15T07:31:09.161Z,61.05
2022-12-15T07:34:10.717Z,60.94
2022-12-15T07:37:12.453Z,60.94
2022-12-15T07:40:14.010Z,61.29
2022-12-15T07:43:16.228Z,61.21
2022-12-15T07:46:18.563Z,61.18
2022-12-15T07:49:20.638Z,60.94
2022-12-15T07:52:22.209Z,61.24
2022-12-15T07:55:43.442Z,61.02
2022-12-15T07:58:45.290Z,61.12
2022-12-15T08:01:47.091Z,61.32
2022-12-15T08:04:57.987Z,61.29
2022-12-15T08:07:59.519Z,61.07
2022-12-15T08:11:13.509Z,61.03
2022-12-15T08:14:17.868Z,61.20
2022-12-15T08:17:20.499Z,61.03
2022-12-15T08:20:22.282Z,61.28
2022-12-15T08:23:23.787Z,61.04
2022-12-15T08:26:30.315Z,61.55
2022-12-15T08:29:50.768Z,61.21
2022-12-15T08:32:53.704Z,61.19
2022-12-15T08:35:59.157Z,61.51
2022-12-15T08:39:01.540Z,61.45
2022-12-15T08:42:03.163Z,60.90
2022-12-15T08:45:05.460Z,61.41
2022-12-15T08:48:07.079Z,61.67
2022-12-15T08:51:09.927Z,61.04
2022-12-15T08:54:11.547Z,61.25
2022-12-15T08:57:13.177Z,61.18
2022-12-15T09:00:16.096Z,61.46
2022-12-15T09:03:17.611Z,61.30
2022-12-15T09:06:37.401Z,61.57
2022-12-15T09:09:39.019Z,61.22
2022-12-15T09:12:40.573Z,61.13
2022-12-15T09:16:08.390Z,61.47
2022-12-15T09:19:05.123Z,61.74
2022-12-15T09:22:07.946Z,61.49
2022-12-15T09:25:09.813Z,61.44
2022-12-15T09:28:11.371Z,62.58
2022-12-15T09:31:17.450Z,62.94
2022-12-15T09:34:19.091Z,62.47
2022-12-15T09:37:21.048Z,61.86
2022-12-15T09:40:23.151Z,61.35
2022-12-15T09:43:37.048Z,61.75
2022-12-15T09:47:08.659Z,61.30
2022-12-15T09:50:12.819Z,61.33
2022-12-15T09:53:45.659Z,61.39
2022-12-15T09:56:53.190Z,61.71
2022-12-15T10:00:05.195Z,61.76
2022-12-15T10:03:27.808Z,62.16
2022-12-15T10:06:39.610Z,61.97
2022-12-15T10:09:41.180Z,61.63
2022-12-15T10:12:55.338Z,61.61
2022-12-15T10:16:16.728Z,61.29
2022-12-15T10:19:49.878Z,61.41
2022-12-15T10:22:52.368Z,61.69
2022-12-15T10:26:17.344Z,61.43
2022-12-15T10:29:24.320Z,61.43
2022-12-15T10:32:42.724Z,61.21
2022-12-15T10:35:46.204Z,61.62
2022-12-15T10:38:50.574Z,61.19
2022-12-15T10:42:13.350Z,61.31
2022-12-15T10:45:33.588Z,61.59
2022-12-15T10:48:36.725Z,61.29
2022-12-15T10:51:50.696Z,61.55
2022-12-15T10:54:54.587Z,61.71
2022-12-15T10:58:01.471Z,61.49
2022-12-15T11:01:14.963Z,61.51
2022-12-15T11:04:26.505Z,61.40
2022-12-15T11:07:48.327Z,61.51
2022-12-15T11:11:19.699Z,61.27
2022-12-15T11:14:29.382Z,61.44
2022-12-15T11:17:41.883Z,61.51
2022-12-15T11:20:53.533Z,61.38
2022-12-15T11:24:21.570Z,61.58
2022-12-15T11:27:34.183Z,61.29
2022-12-15T11:30:47.377Z,61.71
2022-12-15T11:33:53.740Z,61.44
2022-12-15T11:37:36.376Z,61.50
2022-12-15T11:40:40.324Z,61.55
2022-12-15T11:44:06.668Z,61.26
2022-12-15T11:47:20.559Z,61.46
2022-12-15T11:50:55.850Z,61.20
2022-12-15T11:54:18.540Z,61.39
2022-12-15T11:57:51.096Z,61.31
2022-12-15T12:01:10.574Z,61.69
2022-12-15T12:04:17.772Z,61.47
2022-12-15T12:07:30.823Z,61.35
2022-12-15T12:10:38.136Z,61.46
2022-12-15T12:13:59.904Z,61.63
2022-12-15T12:17:06.591Z,61.35
2022-12-15T12:20:21.926Z,61.57
2022-12-15T12:23:42.705Z,61.58
2022-12-15T12:26:48.783Z,61.35
2022-12-15T12:30:00.483Z,61.21
2022-12-15T12:33:45.420Z,61.54
2022-12-15T12:36:51.612Z,61.22
2022-12-15T12:39:56.896Z,61.37
2022-12-15T12:42:59.075Z,61.37
2022-12-15T12:46:11.304Z,61.66
2022-12-15T12:49:26.258Z,61.27
2022-12-15T12:52:32.746Z,61.40
2022-12-15T12:55:42.331Z,61.30
2022-12-15T12:58:45.444Z,61.35
2022-12-15T13:01:50.211Z,61.35
2022-12-15T13:05:22.509Z,61.64
2022-12-15T13:08:45.587Z,61.50
2022-12-15T13:11:59.030Z,61.41
2022-12-15T13:15:24.800Z,61.33
2022-12-15T13:18:28.218Z,61.20
2022-12-15T13:21:41.883Z,61.36
2022-12-15T13:24:50.366Z,61.40
2022-12-15T13:27:57.859Z,61.35
2022-12-15T13:31:18.175Z,61.50
2022-12-15T13:34:23.238Z,61.39
2022-12-15T13:38:03.727Z,61.40
2022-12-15T13:41:24.531Z,61.42
2022-12-15T13:44:40.504Z,61.12
2022-12-15T13:47:53.603Z,61.41
2022-12-15T13:51:06.353Z,61.41
2022-12-15T13:54:21.499Z,61.33
2022-12-15T13:57:25.140Z,61.34
2022-12-15T14:00:26.716Z,61.47
2022-12-15T14:03:28.475Z,61.40
2022-12-15T14:06:36.096Z,61.37
2022-12-15T14:09:42.063Z,61.47
2022-12-15T14:12:45.282Z,61.21
2022-12-15T14:15:52.715Z,61.36
2022-12-15T14:19:20.809Z,61.31
2022-12-15T14:22:29.781Z,61.39
2022-12-15T14:25:32.001Z,61.27
2022-12-15T14:28:39.221Z,61.42
2022-12-15T14:31:40.996Z,61.30
2022-12-15T14:34:44.691Z,61.40
2022-12-15T14:37:55.735Z,61.47
2022-12-15T14:41:00.999Z,61.44
2022-12-15T14:44:36.491Z,61.51
2022-12-15T14:47:33.874Z,61.42
2022-12-15T14:50:36.400Z,61.33
2022-12-15T14:53:41.016Z,61.44
2022-12-15T14:56:42.541Z,61.26
2022-12-15T14:59:45.915Z,61.52
2022-12-15T15:02:47.800Z,61.35
2022-12-15T15:06:03.491Z,61.36
2022-12-15T15:09:40.819Z,61.46
2022-12-15T15:12:46.134Z,61.55
2022-12-15T15:15:56.416Z,61.58
2022-12-15T15:19:01.766Z,61.58
2022-12-15T15:22:03.569Z,61.43
2022-12-15T15:25:27.334Z,61.22
2022-12-15T15:28:37.198Z,61.25
2022-12-15T15:31:41.937Z,61.33
2022-12-15T15:34:45.078Z,61.31
2022-12-15T15:37:47.091Z,61.03
2022-12-15T15:40:54.765Z,61.18
2022-12-15T15:44:01.411Z,61.28
2022-12-15T15:47:03.759Z,61.32
2022-12-15T15:50:06.289Z,61.53
2022-12-15T15:53:15.682Z,61.19
2022-12-15T15:56:17.975Z,61.14
2022-12-15T15:59:21.193Z,61.10
2022-12-15T16:02:22.931Z,61.20
2022-12-15T16:05:25.070Z,60.98
2022-12-15T16:08:31.387Z,61.14
2022-12-15T16:11:33.851Z,61.02
2022-12-15T16:14:35.379Z,61.05
2022-12-15T16:17:36.929Z,61.11
2022-12-15T16:20:39.779Z,61.21
2022-12-15T16:23:44.641Z,61.00
2022-12-15T16:26:50.550Z,60.97
2022-12-15T16:29:52.065Z,61.06
2022-12-15T16:32:54.747Z,61.00
2022-12-15T16:35:57.515Z,61.03
2022-12-15T16:38:59.076Z,61.11
2022-12-15T16:42:01.126Z,61.06
2022-12-15T16:45:15.173Z,62.23
2022-12-15T16:48:17.332Z,61.78
2022-12-15T16:51:36.350Z,61.37
2022-12-15T16:54:48.276Z,61.13
2022-12-15T16:57:50.675Z,60.99
2022-12-15T17:00:53.861Z,61.34
2022-12-15T17:03:55.410Z,61.00
2022-12-15T17:06:56.962Z,60.73
2022-12-15T17:09:59.114Z,61.08
2022-12-15T17:13:35.639Z,60.96
2022-12-15T17:16:39.516Z,61.19
2022-12-15T17:19:52.569Z,61.14
2022-12-15T17:23:11.620Z,60.98
2022-12-15T17:26:29.669Z,61.13
2022-12-15T17:29:33.066Z,61.11
2022-12-15T17:32:34.616Z,61.03
2022-12-15T17:35:36.198Z,61.14
2022-12-15T17:38:37.805Z,61.11
2022-12-15T17:45:00.960Z,60.93
2022-12-15T17:48:02.541Z,60.94
2022-12-15T17:51:14.272Z,60.80
2022-12-15T17:54:18.710Z,61.25
2022-12-15T17:57:20.670Z,61.12
2022-12-15T18:00:28.025Z,60.91
2022-12-15T18:03:30.269Z,61.27
2022-12-15T18:06:32.795Z,60.98
2022-12-15T18:09:34.483Z,61.15
2022-12-15T18:12:36.232Z,61.16
2022-12-15T18:15:37.788Z,60.76
2022-12-15T18:18:39.479Z,61.04
2022-12-15T18:21:41.512Z,60.58
2022-12-15T18:24:43.400Z,61.09
2022-12-15T18:27:45.092Z,60.99
2022-12-15T18:30:48.604Z,60.86
2022-12-15T18:33:50.148Z,60.75
2022-12-15T18:36:51.907Z,60.71
2022-12-15T18:39:53.497Z,60.89
2022-12-15T18:42:55.667Z,60.93
2022-12-15T18:45:57.678Z,60.83
2022-12-15T18:49:00.342Z,61.13
2022-12-15T18:52:01.899Z,60.91
2022-12-15T18:55:03.747Z,60.70
2022-12-15T18:58:05.474Z,61.08
2022-12-15T19:01:08.159Z,60.82
2022-12-15T19:04:09.779Z,61.08
2022-12-15T19:07:11.474Z,60.74
2022-12-15T19:10:14.630Z,61.15
2022-12-15T19:13:18.470Z,60.84
2022-12-15T19:16:22.230Z,61.11
2022-12-15T19:19:42.325Z,60.91
2022-12-15T19:22:45.274Z,61.00
2022-12-15T19:25:48.044Z,60.79
2022-12-15T19:28:49.561Z,61.08
2022-12-15T19:31:52.079Z,61.03
2022-12-15T19:34:53.717Z,60.68
2022-12-15T19:37:57.864Z,60.64
2022-12-15T19:41:00.095Z,60.76
2022-12-15T19:44:01.887Z,60.86
2022-12-15T19:47:09.971Z,60.97
2022-12-15T19:50:20.199Z,60.86
2022-12-15T19:53:25.846Z,60.58
2022-12-15T19:56:29.184Z,60.74
2022-12-15T19:59:30.896Z,60.65
2022-12-15T20:02:32.832Z,60.74
2022-12-15T20:05:34.521Z,60.51
2022-12-15T20:08:38.750Z,60.37
2022-12-15T20:11:40.305Z,60.70
2022-12-15T20:14:42.187Z,60.57
2022-12-15T20:17:44.989Z,60.78
2022-12-15T20:20:48.636Z,60.79
2022-12-15T20:24:00.522Z,60.77
2022-12-15T20:27:04.927Z,60.47
2022-12-15T20:30:17.626Z,60.64
2022-12-15T20:33:19.598Z,60.71
2022-12-15T20:36:25.344Z,60.66
2022-12-15T20:39:29.505Z,60.77
2022-12-15T20:42:31.075Z,60.51
2022-12-15T20:45:32.738Z,60.66
2022-12-15T20:48:36.760Z,60.55
2022-12-15T20:51:38.413Z,60.79
2022-12-15T20:54:39.935Z,60.53
2022-12-15T20:57:41.617Z,60.55
2022-12-15T21:00:44.683Z,60.43
2022-12-15T21:03:47.892Z,60.88
2022-12-15T21:06:54.481Z,60.94
2022-12-15T21:09:56.670Z,60.84
2022-12-15T21:12:58.215Z,60.76
2022-12-15T21:15:59.754Z,60.73
2022-12-15T21:19:20.517Z,60.74
2022-12-15T21:22:28.375Z,60.65
2022-12-15T21:25:29.940Z,60.93
2022-12-15T21:28:31.865Z,60.77
2022-12-15T21:31:33.668Z,60.48
2022-12-15T21:34:35.859Z,60.42
2022-12-15T21:37:37.671Z,60.53
2022-12-15T21:40:39.567Z,60.79
2022-12-15T21:43:41.408Z,60.33
2022-12-15T21:46:42.990Z,60.46
2022-12-15T21:49:44.555Z,60.67
2022-12-15T21:52:47.515Z,60.37
2022-12-15T21:55:49.116Z,60.72
2022-12-15T21:58:52.915Z,60.58
2022-12-15T22:01:57.223Z,60.40
2022-12-15T22:04:58.879Z,60.35
2022-12-15T22:08:12.605Z,60.28
2022-12-15T22:11:23.953Z,60.43
2022-12-15T22:14:29.465Z,60.47
2022-12-15T22:17:32.323Z,60.37
2022-12-15T22:20:33.884Z,60.32
2022-12-15T22:23:35.488Z,60.88
2022-12-15T22:26:38.663Z,60.48
2022-12-15T22:29:40.199Z,60.92
2022-12-15T22:32:42.295Z,60.69
2022-12-15T22:35:43.824Z,60.39
2022-12-15T22:38:46.994Z,60.34
2022-12-15T22:41:50.758Z,60.47
2022-12-15T22:44:52.791Z,60.33
2022-12-15T22:47:56.733Z,60.44
2022-12-15T22:50:58.292Z,60.24
2022-12-15T22:54:00.995Z,60.15
2022-12-15T22:57:10.715Z,61.10
2022-12-15T23:00:13.659Z,60.88
2022-12-15T23:03:15.220Z,60.55
2022-12-15T23:06:16.755Z,60.83
2022-12-15T23:09:18.723Z,60.71
2022-12-15T23:12:20.496Z,60.73
2022-12-15T23:15:47.774Z,60.58
2022-12-15T23:18:51.996Z,60.45
2022-12-15T23:21:53.535Z,60.66
2022-12-15T23:24:55.774Z,60.39
2022-12-15T23:27:57.522Z,60.35
2022-12-15T23:30:59.702Z,60.48
2022-12-15T23:34:01.277Z,60.61
2022-12-15T23:37:02.863Z,60.27
2022-12-15T23:40:04.937Z,60.85
2022-12-15T23:43:06.432Z,60.84
2022-12-15T23:46:08.397Z,60.79
2022-12-15T23:49:10.185Z,60.70
2022-12-15T23:52:11.778Z,60.53
2022-12-15T23:55:13.348Z,60.99
2022-12-15T23:58:14.895Z,60.74
